< < Back
Terminal Aerodrome Forecast


Current Version              Previous Versions:   1  2  3  4  5  6  7  8  9  

Terminal Aerodrome Forecast

227
FTUS42 KMLB 241500 AAA
TAFMCO
TAF AMD
KMCO 241505Z 2415/2512 14004KT P6SM SKC
     FM241700 16005KT P6SM FEW045
     FM242200 13009KT P6SM SCT060
     FM250200 15004KT P6SM FEW050 BKN250=



Latest METAR

185
SAUS70 KWBC 241700 RRD
MTRMCO
METAR KMCO 241653Z 16011KT 10SM SCT040 29/17 A3000 RMK AO2 SLP157
T02890172


USA.gov is the U.S. government's official web portal to all federal, state and local government web resources and services.